Time;durP1;ratioP1;P1;durP2;ratioP2;P2;SDS_P1;SDS_P2;PMS_P1;PMS_P2;Temp;Humidity;BMP_temperature;BMP_pressure;BME280_temperature;BME280_humidity;BME280_pressure;Samples;Min_cycle;Max_cycle;Signal;HPM_P1;HPM_P2
2023/03/09 00:01:43;;;;;;;6.38;4.47;;;12.90;63.90;;;;;;5063523;28;20025;-73
2023/03/09 00:04:13;;;;;;;5.38;3.50;;;12.90;63.80;;;;;;5065348;28;20025;-73
2023/03/09 00:06:39;;;;;;;7.30;3.47;;;12.90;63.80;;;;;;5067449;28;20043;-73
2023/03/09 00:09:05;;;;;;;7.68;4.35;;;12.90;63.70;;;;;;5063146;28;20045;-73
2023/03/09 00:11:31;;;;;;;4.32;3.20;;;12.90;63.80;;;;;;5045361;28;20068;-73
2023/03/09 00:13:57;;;;;;;10.32;6.97;;;12.90;63.70;;;;;;5059387;28;20060;-73
2023/03/09 00:16:25;;;;;;;13.93;9.15;;;12.90;63.60;;;;;;5050529;28;20031;-74
2023/03/09 00:18:53;;;;;;;16.08;8.32;;;12.90;63.80;;;;;;5064912;28;20017;-73
2023/03/09 00:21:34;;;;;;;12.85;8.25;;;12.90;63.80;;;;;;5068166;28;20074;-74
2023/03/09 00:24:13;;;;;;;9.30;6.75;;;12.90;63.90;;;;;;5047056;28;20032;-74
2023/03/09 00:26:41;;;;;;;10.63;6.07;;;12.90;63.90;;;;;;5064938;28;20023;-74
2023/03/09 00:29:10;;;;;;;8.45;4.95;;;12.90;63.80;;;;;;5065818;28;20104;-73
2023/03/09 00:31:36;;;;;;;8.90;3.97;;;12.90;63.80;;;;;;5066148;28;20025;-73
2023/03/09 00:34:02;;;;;;;7.68;3.85;;;12.90;63.90;;;;;;5047401;28;20028;-75
2023/03/09 00:36:28;;;;;;;4.53;3.10;;;12.90;63.80;;;;;;5064804;28;20438;-74
2023/03/09 00:38:56;;;;;;;5.20;3.10;;;12.90;63.80;;;;;;5065061;28;20107;-75
2023/03/09 00:41:24;;;;;;;7.55;3.83;;;12.90;63.70;;;;;;5060143;28;20060;-72
2023/03/09 00:43:50;;;;;;;5.85;4.00;;;12.90;63.70;;;;;;5065689;28;20024;-72
2023/03/09 00:46:18;;;;;;;6.15;4.15;;;12.90;63.90;;;;;;5063463;28;20094;-72
2023/03/09 00:48:45;;;;;;;5.40;3.90;;;12.90;63.80;;;;;;5064576;28;20402;-72
2023/03/09 00:51:34;;;;;;;3.90;3.13;;;12.90;63.60;;;;;;5062544;28;20463;-73
2023/03/09 00:54:02;;;;;;;8.05;3.63;;;12.90;63.70;;;;;;5047208;28;20032;-72
2023/03/09 00:56:30;;;;;;;5.70;3.65;;;12.90;63.50;;;;;;5062462;28;20028;-72
2023/03/09 00:58:58;;;;;;;6.20;3.70;;;12.90;63.50;;;;;;5045576;28;20027;-72
2023/03/09 01:01:25;;;;;;;6.75;3.58;;;12.90;63.60;;;;;;5064329;28;20028;-72
2023/03/09 01:03:52;;;;;;;5.68;3.50;;;12.90;63.80;;;;;;5062568;28;20032;-72
2023/03/09 01:06:18;;;;;;;4.90;3.50;;;12.90;63.70;;;;;;5064934;28;20074;-72
2023/03/09 01:08:45;;;;;;;4.38;3.22;;;12.90;63.70;;;;;;5061848;28;20044;-72
2023/03/09 01:11:13;;;;;;;6.07;4.30;;;12.90;63.70;;;;;;5064504;28;20025;-72
2023/03/09 01:13:40;;;;;;;6.43;3.97;;;12.90;64.00;;;;;;5064930;28;20024;-72
2023/03/09 01:16:07;;;;;;;8.30;3.65;;;12.90;64.00;;;;;;5065118;28;20040;-73
2023/03/09 01:18:33;;;;;;;7.13;4.20;;;12.90;63.90;;;;;;5047015;28;20028;-72
2023/03/09 01:21:00;;;;;;;4.50;3.13;;;12.90;63.90;;;;;;5064836;28;20013;-72
2023/03/09 01:23:26;;;;;;;4.65;3.30;;;12.90;64.00;;;;;;5063172;28;20331;-72
2023/03/09 01:25:52;;;;;;;3.33;2.60;;;12.90;63.90;;;;;;5065094;28;20020;-72
2023/03/09 01:28:17;;;;;;;6.38;3.85;;;12.90;63.90;;;;;;5048115;28;20386;-72
2023/03/09 01:30:43;;;;;;;6.40;3.45;;;12.90;63.90;;;;;;5064334;28;20102;-72
2023/03/09 01:33:09;;;;;;;7.15;3.50;;;12.90;63.90;;;;;;5061699;28;20379;-72
2023/03/09 01:35:38;;;;;;;7.60;3.03;;;12.90;64.00;;;;;;5062650;28;20036;-72
2023/03/09 01:38:04;;;;;;;4.05;3.30;;;12.90;64.00;;;;;;5063389;28;20053;-72
2023/03/09 01:40:33;;;;;;;4.68;3.00;;;12.90;63.90;;;;;;5062809;28;20036;-72
2023/03/09 01:43:34;;;;;;;4.25;3.03;;;12.90;63.80;;;;;;5062807;28;20012;-72
2023/03/09 01:46:23;;;;;;;6.32;3.38;;;12.80;63.80;;;;;;5062981;28;20013;-72
2023/03/09 01:49:06;;;;;;;4.53;3.08;;;12.80;63.60;;;;;;5061331;28;20100;-72
2023/03/09 01:51:54;;;;;;;5.00;3.50;;;12.80;63.60;;;;;;5062020;28;20065;-72
2023/03/09 01:54:28;;;;;;;5.32;3.30;;;12.80;63.50;;;;;;5062968;28;20027;-72
2023/03/09 01:56:58;;;;;;;5.32;3.38;;;12.70;63.60;;;;;;5061990;28;20100;-72
2023/03/09 01:59:27;;;;;;;4.78;3.40;;;12.70;63.70;;;;;;5061146;28;20033;-72
2023/03/09 02:01:54;;;;;;;5.40;3.67;;;12.70;63.90;;;;;;5046611;28;20027;-72
2023/03/09 02:04:36;;;;;;;5.53;3.47;;;12.70;63.90;;;;;;5064742;28;20483;-72
2023/03/09 02:07:05;;;;;;;4.78;3.22;;;12.70;64.30;;;;;;5062740;28;20017;-73
2023/03/09 02:09:40;;;;;;;4.25;3.38;;;12.70;64.20;;;;;;5059626;28;20048;-72
2023/03/09 02:12:09;;;;;;;5.32;3.22;;;12.70;64.30;;;;;;5064661;28;20074;-72
2023/03/09 02:14:36;;;;;;;5.07;3.28;;;12.70;64.20;;;;;;5064214;28;20520;-72
2023/03/09 02:17:01;;;;;;;4.05;2.70;;;12.70;64.20;;;;;;5061005;28;20470;-72
2023/03/09 02:19:49;;;;;;;4.30;3.13;;;12.70;64.30;;;;;;5062812;28;20078;-72
2023/03/09 02:22:14;;;;;;;5.55;3.22;;;12.70;64.70;;;;;;5061415;28;20021;-72
2023/03/09 02:24:57;;;;;;;4.97;3.33;;;12.70;65.00;;;;;;5061134;28;20039;-72
2023/03/09 02:27:25;;;;;;;5.60;3.55;;;12.60;65.00;;;;;;5061453;28;20028;-73
2023/03/09 02:29:52;;;;;;;4.85;3.10;;;12.60;64.70;;;;;;5061114;28;20021;-72
2023/03/09 02:32:18;;;;;;;6.82;3.00;;;12.60;64.60;;;;;;5061500;28;20019;-73
2023/03/09 02:34:44;;;;;;;3.88;3.33;;;12.60;64.60;;;;;;5062512;28;20056;-71
2023/03/09 02:37:35;;;;;;;3.97;2.90;;;12.60;64.70;;;;;;5060595;28;20029;-71
2023/03/09 02:40:31;;;;;;;7.00;3.67;;;12.60;64.90;;;;;;5062239;28;20447;-72
2023/03/09 02:42:58;;;;;;;5.13;3.53;;;12.60;65.10;;;;;;5061533;28;20025;-72
2023/03/09 02:45:26;;;;;;;6.65;3.80;;;12.60;64.80;;;;;;5060606;28;20060;-72
2023/03/09 02:47:54;;;;;;;5.68;3.28;;;12.60;65.00;;;;;;5062313;28;20091;-72
2023/03/09 02:50:20;;;;;;;4.82;3.17;;;12.60;64.90;;;;;;5062130;28;20021;-72
2023/03/09 02:52:45;;;;;;;6.80;3.90;;;12.60;64.80;;;;;;5061959;28;20523;-71
2023/03/09 02:55:11;;;;;;;5.82;3.60;;;12.60;65.20;;;;;;5064373;28;20486;-72
2023/03/09 02:57:37;;;;;;;7.30;4.05;;;12.50;65.50;;;;;;5065502;28;20482;-71
2023/03/09 03:00:08;;;;;;;4.07;2.65;;;12.50;65.90;;;;;;5065870;28;20053;-72
2023/03/09 03:02:34;;;;;;;4.32;3.22;;;12.50;66.00;;;;;;5066326;28;20377;-71
2023/03/09 03:05:00;;;;;;;5.40;3.33;;;12.50;65.80;;;;;;5065804;28;20078;-72
2023/03/09 03:07:27;;;;;;;5.13;3.65;;;12.50;65.60;;;;;;5063811;28;20013;-72
2023/03/09 03:09:53;;;;;;;5.70;3.70;;;12.50;65.50;;;;;;5065844;28;20040;-72
2023/03/09 03:12:19;;;;;;;5.70;3.30;;;12.50;65.70;;;;;;5047355;28;20025;-72
2023/03/09 03:14:45;;;;;;;7.40;3.30;;;12.50;65.60;;;;;;5064078;28;20402;-72
2023/03/09 03:17:12;;;;;;;6.28;3.63;;;12.50;65.60;;;;;;5065987;28;20067;-72
2023/03/09 03:19:38;;;;;;;5.63;4.07;;;12.50;66.50;;;;;;5065282;28;20097;-72
2023/03/09 03:22:04;;;;;;;7.55;4.05;;;12.50;66.00;;;;;;5063974;28;20039;-72
2023/03/09 03:24:30;;;;;;;4.53;3.33;;;12.50;66.10;;;;;;5065760;28;20044;-72
2023/03/09 03:26:56;;;;;;;7.07;4.82;;;12.60;65.80;;;;;;5064640;28;20052;-72
2023/03/09 03:29:22;;;;;;;6.68;3.95;;;12.50;66.10;;;;;;5064099;28;20028;-71
2023/03/09 03:31:47;;;;;;;5.10;4.05;;;12.50;66.30;;;;;;5048532;28;20024;-72
2023/03/09 03:34:13;;;;;;;6.88;4.35;;;12.50;66.40;;;;;;5065192;28;20017;-72
2023/03/09 03:36:39;;;;;;;7.35;4.65;;;12.40;66.40;;;;;;5047415;28;20103;-72
2023/03/09 03:39:05;;;;;;;7.80;5.65;;;12.40;66.40;;;;;;5063576;28;20044;-72
2023/03/09 03:41:31;;;;;;;8.13;4.60;;;12.40;66.50;;;;;;5064972;28;20052;-72
2023/03/09 03:43:57;;;;;;;7.43;4.75;;;12.40;66.70;;;;;;5062777;28;20023;-72
2023/03/09 03:46:23;;;;;;;10.85;5.82;;;12.50;66.70;;;;;;5065402;28;20025;-72
2023/03/09 03:48:49;;;;;;;10.90;6.60;;;12.40;66.70;;;;;;5063521;28;20026;-72
2023/03/09 03:51:15;;;;;;;25.13;11.82;;;12.40;66.50;;;;;;5064742;28;20405;-72
2023/03/09 03:53:42;;;;;;;21.90;11.30;;;12.50;66.40;;;;;;5065276;28;20135;-72
2023/03/09 03:56:08;;;;;;;21.45;11.13;;;12.50;66.30;;;;;;5065337;28;20420;-72
2023/03/09 03:58:34;;;;;;;19.92;10.27;;;12.50;66.30;;;;;;5064013;28;20023;-72
2023/03/09 04:01:00;;;;;;;11.48;6.93;;;12.50;66.60;;;;;;5065758;28;20377;-72
2023/03/09 04:03:26;;;;;;;9.57;5.80;;;12.50;66.40;;;;;;5063218;28;20032;-72
2023/03/09 04:05:52;;;;;;;6.00;4.50;;;12.50;66.30;;;;;;5064644;28;20047;-72
2023/03/09 04:08:17;;;;;;;7.97;4.68;;;12.50;66.20;;;;;;5064232;28;20045;-72
2023/03/09 04:10:44;;;;;;;7.80;4.53;;;12.50;67.20;;;;;;5063207;28;20074;-72
2023/03/09 04:13:09;;;;;;;13.98;7.63;;;12.50;66.30;;;;;;5044674;28;20024;-71
2023/03/09 04:15:36;;;;;;;8.68;5.82;;;12.40;66.50;;;;;;5063795;28;20437;-71
2023/03/09 04:18:03;;;;;;;9.20;5.88;;;12.40;66.50;;;;;;5063311;28;20351;-71
2023/03/09 04:20:28;;;;;;;16.55;9.10;;;12.50;66.40;;;;;;5047084;28;20017;-71
2023/03/09 04:22:54;;;;;;;14.50;9.15;;;12.40;66.50;;;;;;5063085;28;20474;-72
2023/03/09 04:25:20;;;;;;;11.95;7.30;;;12.40;66.40;;;;;;5063350;28;20505;-72
2023/03/09 04:27:46;;;;;;;14.98;7.70;;;12.40;66.40;;;;;;5044942;28;20386;-71
2023/03/09 04:30:12;;;;;;;9.00;5.90;;;12.50;66.50;;;;;;5064585;28;20382;-71
2023/03/09 04:32:38;;;;;;;11.95;6.25;;;12.40;66.40;;;;;;5063976;28;20021;-72
2023/03/09 04:35:05;;;;;;;8.40;5.32;;;12.40;66.80;;;;;;5062881;28;20024;-72
2023/03/09 04:37:30;;;;;;;7.47;4.95;;;12.40;67.00;;;;;;5064708;28;20020;-71
2023/03/09 04:39:56;;;;;;;5.88;3.63;;;12.40;67.20;;;;;;5043088;28;20025;-72
2023/03/09 04:42:22;;;;;;;5.90;3.78;;;12.40;67.30;;;;;;5062822;28;20047;-71
2023/03/09 04:44:48;;;;;;;5.72;3.05;;;12.40;67.30;;;;;;5064444;28;20027;-72
2023/03/09 04:47:14;;;;;;;5.00;2.97;;;12.40;67.50;;;;;;5062760;28;20024;-71
2023/03/09 04:49:41;;;;;;;7.00;3.15;;;12.40;67.50;;;;;;5062763;28;20021;-71
2023/03/09 04:52:07;;;;;;;5.32;2.67;;;12.40;67.60;;;;;;5064215;28;20354;-71
2023/03/09 04:54:33;;;;;;;3.50;2.20;;;12.50;67.60;;;;;;5064730;28;20143;-72
2023/03/09 04:56:59;;;;;;;5.30;2.00;;;12.50;67.30;;;;;;5063506;28;20017;-72
2023/03/09 04:59:25;;;;;;;4.18;2.25;;;12.60;67.10;;;;;;5064753;28;20062;-72
2023/03/09 05:01:51;;;;;;;2.13;1.70;;;12.70;66.90;;;;;;5044516;28;20032;-72
2023/03/09 05:04:16;;;;;;;4.25;2.25;;;12.70;66.60;;;;;;5045195;28;20051;-72
2023/03/09 05:06:44;;;;;;;4.47;2.22;;;12.80;66.60;;;;;;5063807;28;20025;-72
2023/03/09 05:09:10;;;;;;;6.07;2.10;;;12.80;66.70;;;;;;5061954;28;20433;-71
2023/03/09 05:11:36;;;;;;;5.10;2.35;;;12.90;66.70;;;;;;5065400;28;20044;-71
2023/03/09 05:14:02;;;;;;;4.10;2.58;;;12.90;66.50;;;;;;5062369;28;20517;-72
2023/03/09 05:16:28;;;;;;;8.05;1.90;;;12.90;66.50;;;;;;5046135;28;20059;-72
2023/03/09 05:18:54;;;;;;;2.67;1.52;;;13.00;66.50;;;;;;5061760;28;20082;-71
2023/03/09 05:21:20;;;;;;;3.85;1.52;;;13.00;66.50;;;;;;5062341;28;20025;-72
2023/03/09 05:23:46;;;;;;;3.03;1.30;;;13.00;66.50;;;;;;5061966;28;20031;-72
2023/03/09 05:26:12;;;;;;;3.28;1.08;;;13.00;66.30;;;;;;5063317;28;20437;-72
2023/03/09 05:28:40;;;;;;;8.05;1.33;;;13.00;66.30;;;;;;5062308;28;20100;-72
2023/03/09 05:31:11;;;;;;;1.45;0.80;;;13.00;66.20;;;;;;5058376;28;20021;-72
2023/03/09 05:33:37;;;;;;;3.92;1.40;;;13.00;66.00;;;;;;5052796;28;20036;-72
2023/03/09 05:36:14;;;;;;;2.60;1.08;;;13.00;66.10;;;;;;5052742;28;20040;-72
2023/03/09 05:38:39;;;;;;;6.75;1.10;;;13.10;66.20;;;;;;5052872;28;20067;-72
2023/03/09 05:41:06;;;;;;;2.60;0.80;;;13.10;66.20;;;;;;5034724;28;20060;-72
2023/03/09 05:43:31;;;;;;;15.73;1.20;;;13.10;66.00;;;;;;5052630;28;20086;-71
2023/03/09 05:45:57;;;;;;;1.88;0.98;;;13.10;65.80;;;;;;5052486;28;20421;-72
2023/03/09 05:48:23;;;;;;;2.75;1.10;;;13.10;65.90;;;;;;5052581;28;20021;-72
2023/03/09 05:50:49;;;;;;;7.68;1.40;;;13.10;66.00;;;;;;5052600;28;20097;-72
2023/03/09 05:53:17;;;;;;;3.00;0.85;;;13.20;66.20;;;;;;5065416;28;20040;-72
2023/03/09 05:55:43;;;;;;;5.13;1.20;;;13.20;66.10;;;;;;5092569;28;20019;-72
2023/03/09 05:58:09;;;;;;;2.45;0.90;;;13.20;66.00;;;;;;5064638;28;20350;-72
2023/03/09 06:00:35;;;;;;;6.43;1.02;;;13.20;65.80;;;;;;5072348;28;20180;-72
2023/03/09 06:03:01;;;;;;;1.52;0.90;;;13.20;65.90;;;;;;5054334;28;20024;-72
2023/03/09 06:05:28;;;;;;;3.55;0.63;;;13.20;65.90;;;;;;5072136;28;20032;-72
2023/03/09 06:07:54;;;;;;;1.50;0.68;;;13.30;65.90;;;;;;5072387;28;20110;-72
2023/03/09 06:10:20;;;;;;;2.75;0.80;;;13.30;66.00;;;;;;5073192;28;20469;-72
2023/03/09 06:12:46;;;;;;;2.90;1.30;;;13.30;65.90;;;;;;5073128;28;20051;-72
2023/03/09 06:15:12;;;;;;;4.68;1.63;;;13.30;66.00;;;;;;5073649;28;20020;-72
2023/03/09 06:17:39;;;;;;;3.95;1.85;;;13.30;65.90;;;;;;5069775;28;20095;-72
2023/03/09 06:20:07;;;;;;;3.30;1.35;;;13.30;66.00;;;;;;5073109;28;20028;-72
2023/03/09 06:22:34;;;;;;;1.98;0.90;;;13.30;65.90;;;;;;5067224;28;20032;-72
2023/03/09 06:25:01;;;;;;;1.85;0.90;;;13.40;65.80;;;;;;5052651;28;20066;-72
2023/03/09 06:27:28;;;;;;;1.90;1.13;;;13.50;65.70;;;;;;5052447;28;20021;-72
2023/03/09 06:29:55;;;;;;;3.15;1.10;;;13.50;65.50;;;;;;5051461;28;20367;-72
2023/03/09 06:32:21;;;;;;;2.17;0.90;;;13.50;65.60;;;;;;5052788;28;20021;-72
2023/03/09 06:34:47;;;;;;;2.80;1.02;;;13.60;65.40;;;;;;5063592;28;20036;-73
2023/03/09 06:37:12;;;;;;;2.17;0.63;;;13.60;65.40;;;;;;5063149;28;20031;-72
2023/03/09 06:39:39;;;;;;;2.25;0.70;;;13.60;65.20;;;;;;5062501;28;20382;-72
2023/03/09 06:42:05;;;;;;;2.38;0.60;;;13.70;64.70;;;;;;5062347;28;20036;-72
2023/03/09 06:44:31;;;;;;;3.72;0.95;;;13.70;64.70;;;;;;5062446;28;20104;-72
2023/03/09 06:46:57;;;;;;;4.03;1.17;;;13.80;64.90;;;;;;5060718;28;20025;-72
2023/03/09 06:49:23;;;;;;;1.75;0.90;;;13.80;64.80;;;;;;5061188;28;20024;-72
2023/03/09 06:51:48;;;;;;;2.75;0.68;;;13.80;64.60;;;;;;5063022;28;20378;-72
2023/03/09 06:54:15;;;;;;;3.35;1.00;;;13.90;64.50;;;;;;5064211;28;20025;-73
2023/03/09 06:56:41;;;;;;;1.40;1.00;;;13.90;64.20;;;;;;5063759;28;20377;-72
2023/03/09 06:59:07;;;;;;;2.10;0.70;;;13.90;64.30;;;;;;5060798;28;20035;-72
2023/03/09 07:01:33;;;;;;;2.42;0.90;;;13.90;64.10;;;;;;5062078;28;20025;-73
2023/03/09 07:03:59;;;;;;;1.55;1.00;;;14.00;63.90;;;;;;5060942;28;20021;-71
2023/03/09 07:06:25;;;;;;;2.05;0.82;;;14.00;63.60;;;;;;5062349;28;20390;-72
2023/03/09 07:08:51;;;;;;;1.67;0.50;;;14.10;63.30;;;;;;5062536;28;20048;-72
2023/03/09 07:11:17;;;;;;;1.42;0.75;;;14.20;63.00;;;;;;5059027;28;20028;-73
2023/03/09 07:13:42;;;;;;;1.60;0.93;;;14.20;62.80;;;;;;5060872;28;20475;-72
2023/03/09 07:16:08;;;;;;;2.88;0.70;;;14.20;62.60;;;;;;5060739;28;20098;-72
2023/03/09 07:18:34;;;;;;;1.63;0.80;;;14.30;62.70;;;;;;5061832;28;20028;-72
2023/03/09 07:21:02;;;;;;;0.47;0.45;;;14.30;62.40;;;;;;5059622;28;20029;-72
2023/03/09 07:23:31;;;;;;;2.20;0.70;;;14.30;62.10;;;;;;5060721;28;20082;-72
2023/03/09 07:26:02;;;;;;;0.73;0.57;;;14.40;62.20;;;;;;5058937;28;20359;-72
2023/03/09 07:28:29;;;;;;;1.75;1.00;;;14.40;61.50;;;;;;5062754;28;20021;-72
2023/03/09 07:30:55;;;;;;;1.10;0.57;;;14.40;61.20;;;;;;5060118;28;20036;-72
2023/03/09 07:33:21;;;;;;;1.17;0.50;;;14.50;61.00;;;;;;5061514;28;20079;-73
2023/03/09 07:35:46;;;;;;;3.15;1.98;;;14.50;60.60;;;;;;5063355;28;20021;-71
2023/03/09 07:38:12;;;;;;;0.95;0.52;;;14.60;60.50;;;;;;5057524;28;20024;-72
2023/03/09 07:40:38;;;;;;;0.80;0.50;;;14.60;60.40;;;;;;5063345;28;20043;-72
2023/03/09 07:43:04;;;;;;;0.90;0.50;;;14.70;60.60;;;;;;5064623;28;20025;-72
2023/03/09 07:45:30;;;;;;;3.25;0.65;;;14.70;60.70;;;;;;5063337;28;20024;-72
2023/03/09 07:47:56;;;;;;;1.27;0.52;;;14.70;61.40;;;;;;5065000;28;20017;-72
2023/03/09 07:50:23;;;;;;;1.70;0.80;;;14.70;64.70;;;;;;5065468;28;20029;-72
2023/03/09 07:52:49;;;;;;;3.13;1.55;;;14.60;64.60;;;;;;5063524;28;20021;-72
2023/03/09 07:55:15;;;;;;;6.00;0.70;;;14.40;64.40;;;;;;5064644;28;20033;-72
2023/03/09 07:57:41;;;;;;;1.65;0.82;;;14.40;64.30;;;;;;5063380;28;20484;-72
2023/03/09 08:00:12;;;;;;;4.63;1.95;;;14.30;64.60;;;;;;5064914;28;20024;-72
2023/03/09 08:02:41;;;;;;;1.83;1.00;;;14.30;64.60;;;;;;5063854;28;20031;-72
2023/03/09 08:05:09;;;;;;;2.47;0.95;;;14.20;64.80;;;;;;5065295;28;20027;-72
2023/03/09 08:07:35;;;;;;;1.42;0.60;;;14.20;64.60;;;;;;5061840;28;20057;-73
2023/03/09 08:10:02;;;;;;;2.17;0.60;;;14.20;64.80;;;;;;5063418;28;20048;-72
2023/03/09 08:12:28;;;;;;;3.20;0.98;;;14.20;64.60;;;;;;5064743;28;20013;-72
2023/03/09 08:14:53;;;;;;;2.63;1.15;;;14.10;64.90;;;;;;5064112;28;20051;-72
2023/03/09 08:17:19;;;;;;;1.05;0.60;;;14.10;64.60;;;;;;5067537;28;20025;-73
2023/03/09 08:19:45;;;;;;;1.17;0.73;;;14.10;64.70;;;;;;5062472;28;20025;-72
2023/03/09 08:22:11;;;;;;;2.22;0.60;;;14.20;65.00;;;;;;5063851;28;20045;-71
2023/03/09 08:24:36;;;;;;;2.95;0.52;;;14.20;64.90;;;;;;5064894;28;20079;-72
2023/03/09 08:27:03;;;;;;;2.67;0.90;;;14.20;64.70;;;;;;5062646;28;20052;-72
2023/03/09 08:29:29;;;;;;;1.73;0.68;;;14.20;64.60;;;;;;5064208;28;20066;-72
2023/03/09 08:31:55;;;;;;;2.92;0.70;;;14.20;64.60;;;;;;5065618;28;20386;-72
2023/03/09 08:34:20;;;;;;;1.92;0.77;;;14.20;64.30;;;;;;5060204;28;20051;-73
2023/03/09 08:36:46;;;;;;;1.80;0.68;;;14.20;64.60;;;;;;5053649;28;20029;-72
2023/03/09 08:39:14;;;;;;;0.98;0.47;;;14.30;64.40;;;;;;5062726;28;20032;-72
2023/03/09 08:41:40;;;;;;;1.65;1.13;;;14.30;63.90;;;;;;5074873;28;20039;-72
2023/03/09 08:44:06;;;;;;;2.60;0.70;;;14.40;63.60;;;;;;5074829;28;20028;-72
2023/03/09 08:46:32;;;;;;;4.15;1.65;;;14.50;63.30;;;;;;5074741;28;20016;-72
2023/03/09 08:49:00;;;;;;;2.38;0.90;;;14.60;62.70;;;;;;5074465;28;20339;-72
2023/03/09 08:51:28;;;;;;;3.92;1.20;;;14.70;62.60;;;;;;5074177;28;20044;-73
2023/03/09 08:53:55;;;;;;;1.33;0.80;;;14.80;62.30;;;;;;5073493;28;20021;-73
2023/03/09 08:56:21;;;;;;;0.98;0.75;;;14.80;61.70;;;;;;5073031;28;20073;-72
2023/03/09 08:58:47;;;;;;;2.67;1.40;;;14.90;61.10;;;;;;5056557;28;20432;-72
2023/03/09 09:01:13;;;;;;;0.93;0.65;;;14.90;60.60;;;;;;5074424;28;20032;-72
2023/03/09 09:03:39;;;;;;;3.90;1.48;;;15.00;60.30;;;;;;5074048;28;20034;-72
2023/03/09 09:06:13;;;;;;;4.60;1.10;;;15.00;59.80;;;;;;5056382;28;20442;-72
2023/03/09 09:08:42;;;;;;;1.90;0.73;;;15.00;59.10;;;;;;5074028;28;20528;-72
2023/03/09 09:11:16;;;;;;;1.50;0.68;;;15.00;59.10;;;;;;5043568;28;20021;-72
2023/03/09 09:13:43;;;;;;;3.33;1.00;;;15.00;58.80;;;;;;5054136;28;20029;-72
2023/03/09 09:16:11;;;;;;;6.32;1.73;;;15.10;58.60;;;;;;5054510;28;20060;-72
2023/03/09 09:18:37;;;;;;;5.03;2.20;;;15.10;58.60;;;;;;5032995;28;20498;-73
2023/03/09 09:21:07;;;;;;;3.35;1.35;;;15.20;58.30;;;;;;5052104;28;20024;-73
2023/03/09 09:23:34;;;;;;;4.05;1.10;;;15.20;58.20;;;;;;5053344;28;20028;-72
2023/03/09 09:26:00;;;;;;;3.45;1.00;;;15.30;58.00;;;;;;5054762;28;20021;-73
2023/03/09 09:28:26;;;;;;;2.45;0.70;;;15.40;57.50;;;;;;5051181;28;20025;-72
2023/03/09 09:30:56;;;;;;;2.17;0.90;;;15.50;57.30;;;;;;5034989;28;20017;-72
2023/03/09 09:33:23;;;;;;;9.07;1.75;;;15.60;56.70;;;;;;5035958;28;20474;-73
2023/03/09 09:36:08;;;;;;;1.77;0.60;;;15.60;56.60;;;;;;5053811;28;20025;-73
2023/03/09 09:38:34;;;;;;;5.30;1.13;;;15.70;56.40;;;;;;5054141;28;20028;-73
2023/03/09 09:41:10;;;;;;;5.93;0.77;;;15.70;56.00;;;;;;5042308;28;20471;-73
2023/03/09 09:43:37;;;;;;;6.03;1.05;;;15.80;55.30;;;;;;5035609;28;20106;-72
2023/03/09 09:46:04;;;;;;;4.95;0.82;;;15.80;54.80;;;;;;5053628;28;20096;-73
2023/03/09 09:48:31;;;;;;;6.43;1.00;;;15.90;54.70;;;;;;5053308;28;20471;-72
2023/03/09 09:51:09;;;;;;;5.20;1.33;;;16.00;54.50;;;;;;5053562;28;20025;-73
2023/03/09 09:53:47;;;;;;;3.65;1.30;;;16.00;54.70;;;;;;5052964;28;20037;-73
2023/03/09 09:56:18;;;;;;;7.88;1.42;;;16.10;54.70;;;;;;5036040;28;20025;-72
2023/03/09 09:58:46;;;;;;;1.92;0.80;;;16.20;54.80;;;;;;5049708;28;20043;-72
2023/03/09 10:01:36;;;;;;;5.95;1.45;;;16.30;54.40;;;;;;5053594;28;20078;-72
2023/03/09 10:04:09;;;;;;;3.90;1.20;;;16.30;54.70;;;;;;5030019;28;20033;-73
2023/03/09 10:06:36;;;;;;;12.60;1.63;;;16.40;54.70;;;;;;5053528;28;20032;-73
2023/03/09 10:09:26;;;;;;;3.88;1.15;;;16.50;54.20;;;;;;5059856;28;20101;-72
2023/03/09 10:11:59;;;;;;;11.00;1.60;;;16.60;53.30;;;;;;5068162;28;20025;-73
2023/03/09 10:14:27;;;;;;;4.65;1.45;;;16.70;51.60;;;;;;5073308;28;20024;-73
2023/03/09 10:17:27;;;;;;;5.32;1.75;;;16.80;51.70;;;;;;5073390;28;20035;-73
2023/03/09 10:19:54;;;;;;;16.58;1.70;;;16.80;51.40;;;;;;5073131;28;20042;-74
2023/03/09 10:22:24;;;;;;;5.72;1.80;;;16.90;50.50;;;;;;5071832;28;20032;-73
2023/03/09 10:24:54;;;;;;;6.75;1.42;;;17.00;50.40;;;;;;5072837;28;20064;-73
2023/03/09 10:27:20;;;;;;;5.80;1.30;;;17.10;50.50;;;;;;5072587;28;20031;-73
2023/03/09 10:30:00;;;;;;;6.75;1.63;;;17.20;50.70;;;;;;5053064;28;20095;-73
2023/03/09 10:32:45;;;;;;;4.75;1.00;;;17.30;50.40;;;;;;5065388;28;20033;-73
2023/03/09 10:35:21;;;;;;;9.48;1.23;;;17.40;50.00;;;;;;5053274;28;20025;-73
2023/03/09 10:37:50;;;;;;;6.43;1.50;;;17.40;49.50;;;;;;5056207;28;20036;-73
2023/03/09 10:40:24;;;;;;;4.60;1.45;;;17.50;49.80;;;;;;5057321;28;20401;-73
2023/03/09 10:42:50;;;;;;;8.30;1.70;;;17.50;49.60;;;;;;5059425;28;20027;-73
2023/03/09 10:45:30;;;;;;;6.82;2.10;;;17.50;49.30;;;;;;5072092;28;20020;-73
2023/03/09 10:48:02;;;;;;;9.65;3.58;;;17.60;49.50;;;;;;5073198;28;20028;-73
2023/03/09 10:50:34;;;;;;;10.18;2.03;;;17.70;49.60;;;;;;5061346;28;20112;-73
2023/03/09 10:53:33;;;;;;;5.38;1.13;;;17.70;48.70;;;;;;5069491;28;20027;-74
2023/03/09 10:56:03;;;;;;;3.95;1.30;;;17.70;49.30;;;;;;5068386;28;20550;-73
2023/03/09 10:58:29;;;;;;;9.70;1.13;;;17.80;49.30;;;;;;5072810;28;20033;-73
2023/03/09 11:01:03;;;;;;;4.75;1.05;;;17.90;49.00;;;;;;5071531;28;20388;-74
2023/03/09 11:03:35;;;;;;;5.13;1.92;;;17.90;49.30;;;;;;5072861;28;20025;-73
2023/03/09 11:06:12;;;;;;;18.33;3.42;;;18.00;49.50;;;;;;5072759;28;20048;-73
2023/03/09 11:08:41;;;;;;;4.65;1.63;;;18.00;49.00;;;;;;5062659;28;20040;-73
2023/03/09 11:11:16;;;;;;;2.95;0.80;;;18.10;48.60;;;;;;5052882;28;20101;-73
2023/03/09 11:13:44;;;;;;;4.30;1.35;;;18.10;48.60;;;;;;5055560;28;20032;-73
2023/03/09 11:16:34;;;;;;;4.32;1.00;;;18.20;47.50;;;;;;5058774;28;20032;-74
2023/03/09 11:19:14;;;;;;;3.25;0.85;;;18.10;47.70;;;;;;5057930;28;20029;-73
2023/03/09 11:21:57;;;;;;;6.05;1.20;;;18.20;47.60;;;;;;5044431;28;20020;-75
2023/03/09 11:24:44;;;;;;;5.43;0.90;;;18.20;47.60;;;;;;5054107;28;20087;-75
2023/03/09 11:27:26;;;;;;;6.43;1.02;;;18.20;47.90;;;;;;5034803;28;20462;-73
2023/03/09 11:30:11;;;;;;;7.82;1.90;;;18.10;48.50;;;;;;5045592;28;20067;-74
2023/03/09 11:32:40;;;;;;;2.35;0.52;;;18.10;48.60;;;;;;5039741;28;20057;-74
2023/03/09 11:35:12;;;;;;;1.48;0.70;;;18.10;48.90;;;;;;5055925;28;20047;-74
2023/03/09 11:37:44;;;;;;;3.35;0.80;;;18.00;48.70;;;;;;5050847;28;20053;-74
2023/03/09 11:40:16;;;;;;;7.40;1.10;;;18.10;49.00;;;;;;5044977;28;20129;-73
2023/03/09 11:42:56;;;;;;;6.00;0.70;;;18.00;48.80;;;;;;5054877;28;20035;-73
2023/03/09 11:45:25;;;;;;;6.47;0.93;;;18.00;48.60;;;;;;5048216;28;20025;-74
2023/03/09 11:48:24;;;;;;;3.45;0.85;;;18.00;47.90;;;;;;5053766;28;20024;-74
2023/03/09 11:51:18;;;;;;;3.72;0.90;;;18.00;47.20;;;;;;5046974;28;20025;-75
2023/03/09 11:53:59;;;;;;;4.20;0.77;;;17.90;47.40;;;;;;5051607;28;20021;-76
2023/03/09 11:56:33;;;;;;;3.30;1.10;;;17.90;47.60;;;;;;5053719;28;20310;-74
2023/03/09 11:59:20;;;;;;;;;;;17.90;46.90;;;;;;5049322;28;20374;-73
2023/03/09 12:01:56;;;;;;;9.38;1.27;;;18.10;48.30;;;;;;5042352;28;19916;-73
2023/03/09 12:04:22;;;;;;;3.67;0.95;;;18.10;46.40;;;;;;5051148;28;20490;-72
2023/03/09 12:07:03;;;;;;;5.65;1.10;;;18.20;46.00;;;;;;5046398;28;20046;-72
2023/03/09 12:09:32;;;;;;;2.85;0.77;;;18.30;46.70;;;;;;5064433;28;20517;-72
2023/03/09 12:12:28;;;;;;;4.60;1.13;;;18.40;45.90;;;;;;5073905;28;20028;-71
2023/03/09 12:15:00;;;;;;;3.22;1.00;;;18.50;45.90;;;;;;5069220;28;20109;-72
2023/03/09 12:17:32;;;;;;;5.38;1.05;;;18.70;45.30;;;;;;5063674;28;20036;-73
2023/03/09 12:19:59;;;;;;;4.93;1.10;;;18.70;44.50;;;;;;5078728;28;20381;-72
2023/03/09 12:22:36;;;;;;;3.45;0.95;;;18.70;44.70;;;;;;5067951;28;20435;-74
2023/03/09 12:25:06;;;;;;;4.30;1.25;;;18.80;44.40;;;;;;5068388;28;20019;-72
2023/03/09 12:27:34;;;;;;;2.65;0.80;;;18.80;44.20;;;;;;5074091;28;20021;-72
2023/03/09 12:30:07;;;;;;;1.63;0.68;;;18.80;43.50;;;;;;5074969;28;20025;-72
2023/03/09 12:32:36;;;;;;;2.45;0.98;;;18.90;44.00;;;;;;5068969;28;20016;-72
2023/03/09 12:35:09;;;;;;;5.63;0.70;;;18.90;43.80;;;;;;5074381;28;20500;-73
2023/03/09 12:37:35;;;;;;;1.73;0.70;;;19.00;43.80;;;;;;5073556;28;20037;-73
2023/03/09 12:40:17;;;;;;;3.25;0.70;;;19.10;44.00;;;;;;5066445;28;20031;-73
2023/03/09 12:42:47;;;;;;;3.40;0.90;;;19.10;43.90;;;;;;5065023;28;20112;-74
2023/03/09 12:45:16;;;;;;;2.70;0.70;;;19.10;42.50;;;;;;5066244;28;20029;-72
2023/03/09 12:47:57;;;;;;;5.00;0.98;;;19.10;42.10;;;;;;5063438;28;20048;-73
2023/03/09 12:50:54;;;;;;;1.60;0.80;;;19.10;42.80;;;;;;5073200;28;20021;-74
2023/03/09 12:53:26;;;;;;;2.92;1.10;;;19.20;43.20;;;;;;5068612;28;20028;-75
2023/03/09 12:56:03;;;;;;;1.88;0.80;;;19.30;42.90;;;;;;5074484;28;20111;-76
2023/03/09 12:58:31;;;;;;;3.70;0.80;;;19.30;42.60;;;;;;5078270;28;20469;-74